Time;durP1;ratioP1;P1;durP2;ratioP2;P2;SDS_P1;SDS_P2;PMS_P1;PMS_P2;Temp;Humidity;BMP_temperature;BMP_pressure;BME280_temperature;BME280_humidity;BME280_pressure;Samples;Min_cycle;Max_cycle;Signal;HPM_P1;HPM_P2
2023/01/02 00:02:09;;;;;;;3.05;1.67;;;;;;;10.17;83.03;99149.97;5104676;28;20415;-79
2023/01/02 00:04:35;;;;;;;3.70;1.50;;;;;;;10.41;82.34;99173.41;5096913;28;20054;-80
2023/01/02 00:07:02;;;;;;;2.83;1.42;;;;;;;10.22;82.34;99136.72;5109726;27;20044;-80
2023/01/02 00:09:28;;;;;;;3.08;1.45;;;;;;;10.34;81.54;99149.88;5111785;28;20048;-80
2023/01/02 00:11:55;;;;;;;2.25;1.70;;;;;;;10.41;81.82;99148.94;5109546;28;20051;-80
2023/01/02 00:14:23;;;;;;;4.05;2.10;;;;;;;10.35;81.53;99133.38;5108571;28;20056;-80
2023/01/02 00:16:49;;;;;;;7.25;1.45;;;;;;;10.45;80.67;99133.13;5101449;28;20044;-80
2023/01/02 00:19:16;;;;;;;6.10;1.80;;;;;;;10.37;81.54;99125.03;5109520;28;20047;-80
2023/01/02 00:21:42;;;;;;;3.10;1.40;;;;;;;10.55;81.69;99160.91;5107076;27;20382;-80
2023/01/02 00:24:09;;;;;;;4.80;1.40;;;;;;;10.37;81.57;99119.63;5098770;27;20040;-80
2023/01/02 00:26:36;;;;;;;3.50;1.13;;;;;;;10.39;82.86;99131.16;5110058;28;20055;-80
2023/01/02 00:29:02;;;;;;;4.95;1.60;;;;;;;10.27;84.62;99123.41;5102427;28;20122;-80
2023/01/02 00:31:30;;;;;;;4.82;1.42;;;;;;;10.28;83.75;99119.69;5103393;28;20051;-80
2023/01/02 00:33:57;;;;;;;10.15;2.05;;;;;;;10.39;82.44;99145.59;5101553;28;20043;-79
2023/01/02 00:36:25;;;;;;;3.65;1.58;;;;;;;10.54;81.50;99150.22;5109062;28;20126;-80
2023/01/02 00:38:54;;;;;;;6.13;1.85;;;;;;;10.43;80.67;99113.44;5098405;28;20059;-80
2023/01/02 00:41:21;;;;;;;2.97;1.38;;;;;;;10.60;80.49;99130.44;5097974;28;20048;-80
2023/01/02 00:43:47;;;;;;;3.42;1.85;;;;;;;10.43;80.91;99117.03;5087573;28;20051;-80
2023/01/02 00:46:14;;;;;;;5.50;2.00;;;;;;;10.51;80.59;99137.84;5113773;28;20044;-80
2023/01/02 00:48:42;;;;;;;3.42;1.63;;;;;;;10.46;81.20;99134.81;5109118;28;20105;-80
2023/01/02 00:51:09;;;;;;;2.25;1.63;;;;;;;10.49;82.42;99153.47;5105012;28;20048;-80
2023/01/02 00:53:36;;;;;;;3.38;2.00;;;;;;;10.47;84.95;99163.69;5091221;28;20044;-79
2023/01/02 00:56:02;;;;;;;6.25;2.38;;;;;;;10.21;89.97;99154.03;5111652;28;20050;-80
2023/01/02 00:58:29;;;;;;;2.35;1.55;;;;;;;10.10;91.40;99159.88;5113315;28;20058;-80
2023/01/02 01:00:55;;;;;;;4.95;1.80;;;;;;;10.09;91.35;99167.19;5110508;28;20040;-80
2023/01/02 01:03:22;;;;;;;6.97;2.45;;;;;;;9.77;91.76;99141.16;5112772;28;20054;-80
2023/01/02 01:05:49;;;;;;;4.53;2.80;;;;;;;9.85;91.62;99151.94;5105427;28;20044;-80
2023/01/02 01:08:16;;;;;;;4.03;2.17;;;;;;;9.64;93.01;99135.47;5106405;28;20075;-80
2023/01/02 01:10:43;;;;;;;5.28;2.47;;;;;;;9.76;97.24;99153.03;5110500;28;20406;-80
2023/01/02 01:13:09;;;;;;;7.90;3.28;;;;;;;9.63;98.79;99139.19;5107164;28;20047;-79
2023/01/02 01:15:36;;;;;;;5.28;2.97;;;;;;;9.47;100.00;99142.84;5113479;28;20040;-80
2023/01/02 01:18:02;;;;;;;7.75;3.20;;;;;;;9.33;100.00;99139.00;5105334;28;20044;-80
2023/01/02 01:20:29;;;;;;;6.03;3.25;;;;;;;9.34;100.00;99146.97;5109700;28;20050;-80
2023/01/02 01:22:57;;;;;;;4.88;2.47;;;;;;;9.16;100.00;99120.09;5105737;28;20483;-80
2023/01/02 01:25:24;;;;;;;6.25;2.50;;;;;;;9.30;100.00;99147.50;5111570;27;20045;-80
2023/01/02 01:27:52;;;;;;;5.28;2.40;;;;;;;9.20;100.00;99131.47;5112750;28;20055;-80
2023/01/02 01:30:19;;;;;;;4.40;2.28;;;;;;;9.15;100.00;99128.41;5094491;28;20052;-80
2023/01/02 01:32:46;;;;;;;4.28;2.20;;;;;;;9.03;100.00;99125.25;5104339;28;20054;-80
2023/01/02 01:35:12;;;;;;;3.08;1.77;;;;;;;9.09;100.00;99119.13;5110761;28;20043;-79
2023/01/02 01:37:39;;;;;;;7.78;2.17;;;;;;;9.04;100.00;99110.69;5110093;28;20051;-80
2023/01/02 01:40:08;;;;;;;7.38;2.08;;;;;;;9.08;100.00;99136.44;5102097;28;20048;-80
2023/01/02 01:42:35;;;;;;;4.25;2.15;;;;;;;9.12;100.00;99134.19;5103377;28;20051;-79
2023/01/02 01:45:01;;;;;;;6.95;2.25;;;;;;;9.07;100.00;99131.19;5111439;28;20044;-80
2023/01/02 01:47:37;;;;;;;8.00;3.05;;;;;;;9.01;100.00;99128.13;5112719;28;20415;-80
2023/01/02 01:50:09;;;;;;;6.90;2.58;;;;;;;9.09;100.00;99134.56;5111621;28;20055;-80
2023/01/02 01:52:41;;;;;;;6.28;3.13;;;;;;;8.93;100.00;99120.06;5111537;28;20050;-80
2023/01/02 01:55:14;;;;;;;5.28;3.08;;;;;;;9.03;100.00;99136.97;5109370;28;20051;-80
2023/01/02 01:57:44;;;;;;;8.63;3.55;;;;;;;8.96;100.00;99137.84;5111066;28;20407;-80
2023/01/02 02:00:12;;;;;;;6.47;2.88;;;;;;;8.91;100.00;99132.91;5105769;28;20095;-79
2023/01/02 02:02:41;;;;;;;4.82;2.85;;;;;;;9.00;100.00;99156.28;5111776;28;20048;-80
2023/01/02 02:05:11;;;;;;;5.28;2.70;;;;;;;8.86;100.00;99148.88;5108479;28;20286;-80
2023/01/02 02:07:40;;;;;;;;;;;;;;;8.88;100.00;99157.66;5104562;28;20503;-80
2023/01/02 02:10:10;;;;;;;8.45;2.92;;;;;;;8.76;100.00;99123.81;5112062;28;19930;-80
2023/01/02 02:12:37;;;;;;;7.38;3.10;;;;;;;8.91;100.00;99153.78;5106097;28;20040;-79
2023/01/02 02:15:07;;;;;;;8.52;3.05;;;;;;;8.74;100.00;99115.88;5103180;28;20051;-80
2023/01/02 02:17:46;;;;;;;5.45;2.83;;;;;;;8.78;100.00;99117.22;5103174;28;20066;-80
2023/01/02 02:20:30;;;;;;;5.13;1.97;;;;;;;8.96;100.00;99108.00;5102122;28;20054;-80
2023/01/02 02:23:33;;;;;;;2.60;1.80;;;;;;;9.18;97.76;99095.50;5101401;28;20278;-80
2023/01/02 02:26:34;;;;;;;4.85;1.80;;;;;;;9.38;95.23;99104.06;5111162;28;20050;-80
2023/01/02 02:29:30;;;;;;;3.63;1.60;;;;;;;9.62;94.00;99119.34;5106506;28;20058;-80
2023/01/02 02:32:07;;;;;;;2.08;1.48;;;;;;;9.71;92.29;99101.13;5106977;28;20395;-80
2023/01/02 02:34:44;;;;;;;7.07;2.08;;;;;;;9.84;90.62;99098.63;5106826;28;20048;-80
2023/01/02 02:37:19;;;;;;;4.20;1.42;;;;;;;10.03;89.58;99110.06;5104009;28;20039;-80
2023/01/02 02:39:54;;;;;;;2.80;1.20;;;;;;;10.05;87.95;99095.25;5104274;28;20044;-80
2023/01/02 02:42:33;;;;;;;4.78;1.65;;;;;;;10.16;86.41;99093.13;5103160;28;20051;-79
2023/01/02 02:45:09;;;;;;;4.72;1.42;;;;;;;10.15;86.50;99080.59;5104432;28;20051;-80
2023/01/02 02:47:43;;;;;;;3.20;1.50;;;;;;;10.18;85.98;99086.47;5111224;28;20047;-82
2023/01/02 02:50:14;;;;;;;4.88;1.30;;;;;;;10.26;85.46;99096.44;5102254;28;20050;-80
2023/01/02 02:52:45;;;;;;;9.93;1.85;;;;;;;10.21;85.74;99077.13;5107086;28;20391;-80
2023/01/02 02:55:15;;;;;;;3.80;1.58;;;;;;;10.15;86.22;99072.44;5101540;28;20495;-80
2023/01/02 02:57:44;;;;;;;3.28;1.63;;;;;;;10.14;86.49;99089.75;5109943;28;20503;-80
2023/01/02 03:00:14;;;;;;;3.60;1.85;;;;;;;10.12;86.04;99091.78;5109759;28;20066;-80
2023/01/02 03:02:42;;;;;;;5.25;1.55;;;;;;;10.05;85.18;99078.13;5107366;28;20073;-80
2023/01/02 03:05:14;;;;;;;6.13;1.50;;;;;;;10.16;85.47;99083.13;5096465;28;20332;-80
2023/01/02 03:07:48;;;;;;;3.05;1.58;;;;;;;10.08;86.24;99075.03;5102051;28;20055;-80
2023/01/02 03:10:23;;;;;;;3.17;1.30;;;;;;;10.22;85.58;99092.38;5109831;28;20078;-80
2023/01/02 03:13:00;;;;;;;8.18;2.60;;;;;;;10.00;85.55;99056.94;5110024;28;20043;-80
2023/01/02 03:15:32;;;;;;;4.93;1.88;;;;;;;10.06;83.83;99056.19;5101757;28;20055;-80
2023/01/02 03:18:06;;;;;;;3.00;1.50;;;;;;;10.26;83.07;99075.53;5110751;28;20410;-80
2023/01/02 03:20:38;;;;;;;3.58;1.83;;;;;;;10.16;83.54;99058.66;5107138;28;20056;-80
2023/01/02 03:23:08;;;;;;;8.35;1.67;;;;;;;10.30;83.40;99086.88;5094992;28;20048;-80
2023/01/02 03:25:36;;;;;;;3.03;1.75;;;;;;;10.26;82.73;99069.25;5103503;28;20139;-80
2023/01/02 03:28:06;;;;;;;5.28;1.75;;;;;;;10.50;82.28;99098.09;5102205;28;20079;-80
2023/01/02 03:30:35;;;;;;;4.63;1.80;;;;;;;10.28;82.28;99076.19;5105722;28;20735;-80
2023/01/02 03:33:07;;;;;;;4.50;1.55;;;;;;;10.48;81.67;99094.72;5106786;28;20059;-80
2023/01/02 03:35:40;;;;;;;2.45;1.55;;;;;;;10.59;80.34;99096.97;5097693;28;20055;-80
2023/01/02 03:38:11;;;;;;;5.53;1.90;;;;;;;10.63;80.95;99092.00;5100474;28;20055;-80
2023/01/02 03:40:43;;;;;;;3.50;1.63;;;;;;;10.53;81.15;99070.53;5107025;28;20051;-80
2023/01/02 03:43:14;;;;;;;4.85;1.58;;;;;;;10.63;79.91;99090.13;5112703;28;20055;-80
2023/01/02 03:45:45;;;;;;;3.53;1.67;;;;;;;10.45;80.65;99066.03;5113439;28;20133;-79
2023/01/02 03:48:24;;;;;;;3.58;1.75;;;;;;;10.58;80.07;99086.28;5110385;28;20051;-80
2023/01/02 03:50:53;;;;;;;4.00;1.77;;;;;;;10.53;80.41;99089.56;5113457;28;20044;-80
2023/01/02 03:53:20;;;;;;;3.05;1.45;;;;;;;10.37;80.58;99065.25;5110056;28;20052;-80
2023/01/02 03:55:57;;;;;;;3.15;1.35;;;;;;;10.48;81.13;99083.84;5107484;28;20048;-80
2023/01/02 03:58:32;;;;;;;1.42;1.20;;;;;;;10.56;80.15;99096.50;5110108;28;20490;-80
2023/01/02 04:01:04;;;;;;;3.25;1.25;;;;;;;10.49;79.33;99068.38;5110878;28;20050;-80
2023/01/02 04:03:38;;;;;;;5.07;1.42;;;;;;;10.42;80.24;99066.41;5113406;28;20067;-80
2023/01/02 04:06:10;;;;;;;3.70;1.77;;;;;;;10.43;80.59;99094.41;5107725;28;20043;-80
2023/01/02 04:08:41;;;;;;;3.85;1.75;;;;;;;10.33;81.27;99080.22;5114013;28;20484;-80
2023/01/02 04:11:09;;;;;;;1.92;1.17;;;;;;;10.22;81.57;99071.50;5113811;28;20056;-80
2023/01/02 04:13:40;;;;;;;4.47;1.80;;;;;;;10.27;82.49;99096.25;5113509;28;20130;-80
2023/01/02 04:16:10;;;;;;;3.45;1.40;;;;;;;10.24;82.41;99098.50;5109262;28;20463;-80
2023/01/02 04:18:40;;;;;;;4.25;1.55;;;;;;;10.19;81.52;99098.19;5106421;28;20426;-80
2023/01/02 04:21:09;;;;;;;;;;;;;;;10.34;80.66;99090.97;5102980;28;20051;-79
2023/01/02 04:23:39;;;;;;;4.50;1.75;;;;;;;10.15;81.19;99067.84;5103601;28;19920;-80
2023/01/02 04:26:08;;;;;;;;;;;;;;;10.36;81.32;99088.88;5106106;28;20040;-80
2023/01/02 04:28:35;;;;;;;2.45;1.40;;;;;;;10.37;80.96;99095.16;5113743;28;19920;-80
2023/01/02 04:31:06;;;;;;;8.52;1.23;;;;;;;10.25;81.07;99073.00;5108151;28;20059;-80
2023/01/02 04:33:42;;;;;;;6.90;1.55;;;;;;;10.20;80.71;99067.28;5100297;28;20044;-80
2023/01/02 04:36:09;;;;;;;3.42;1.15;;;;;;;10.27;80.84;99079.94;5106679;28;20044;-80
2023/01/02 04:38:36;;;;;;;1.95;1.42;;;;;;;10.26;80.34;99071.97;5111427;28;20498;-80
2023/01/02 04:41:03;;;;;;;3.60;1.58;;;;;;;10.31;79.95;99085.00;5109220;28;20046;-80
2023/01/02 04:43:30;;;;;;;3.47;1.48;;;;;;;10.23;80.73;99078.59;5104255;28;20398;-80
2023/01/02 04:45:57;;;;;;;5.72;2.30;;;;;;;10.23;80.21;99073.19;5113727;27;20043;-80
2023/01/02 04:48:23;;;;;;;2.30;1.50;;;;;;;10.37;79.35;99073.41;5109107;28;20062;-80
2023/01/02 04:50:53;;;;;;;3.35;1.38;;;;;;;10.47;79.17;99076.72;5105450;28;20052;-80
2023/01/02 04:53:20;;;;;;;1.88;1.05;;;;;;;10.29;79.48;99058.00;5113064;28;20054;-79
2023/01/02 04:55:47;;;;;;;3.50;1.38;;;;;;;10.36;78.58;99067.16;5111876;28;20047;-80
2023/01/02 04:58:13;;;;;;;3.38;1.30;;;;;;;10.29;77.74;99044.44;5111688;28;20074;-80
2023/01/02 05:00:40;;;;;;;2.60;1.45;;;;;;;10.21;79.46;99066.25;5108599;28;20603;-80
2023/01/02 05:03:06;;;;;;;3.63;1.42;;;;;;;10.19;79.62;99077.31;5111736;28;20053;-80
2023/01/02 05:05:33;;;;;;;2.55;1.38;;;;;;;10.12;80.05;99067.34;5112159;28;20040;-80
2023/01/02 05:08:01;;;;;;;2.33;1.25;;;;;;;9.97;81.34;99048.31;5107051;28;20561;-80
2023/01/02 05:10:27;;;;;;;2.97;1.35;;;;;;;9.97;80.85;99059.19;5113814;28;20050;-80
2023/01/02 05:12:54;;;;;;;3.30;1.20;;;;;;;9.92;81.39;99055.16;5112981;28;20047;-80
2023/01/02 05:15:20;;;;;;;5.45;1.25;;;;;;;10.04;80.32;99066.41;5106750;28;20505;-80
2023/01/02 05:17:47;;;;;;;1.20;1.00;;;;;;;10.18;79.92;99096.50;5094868;28;20052;-80
2023/01/02 05:20:14;;;;;;;2.45;1.20;;;;;;;10.20;79.11;99081.69;5106464;28;20108;-80
2023/01/02 05:25:27;;;;;;;13.65;1.98;;;;;;;10.21;79.74;99082.56;5108521;28;20093;-80
2023/01/02 05:27:54;;;;;;;2.47;1.63;;;;;;;10.09;79.42;99063.97;5111316;28;20147;-80
2023/01/02 05:30:21;;;;;;;3.97;1.40;;;;;;;10.18;80.15;99075.63;5111447;28;20055;-80
2023/01/02 05:32:48;;;;;;;2.38;1.02;;;;;;;10.12;79.80;99089.06;5108095;28;20044;-80
2023/01/02 05:35:15;;;;;;;3.05;1.23;;;;;;;10.16;79.62;99099.41;5111341;28;20049;-80
2023/01/02 05:37:42;;;;;;;3.33;1.05;;;;;;;10.05;80.06;99083.53;5106065;28;20047;-80
2023/01/02 05:40:10;;;;;;;1.65;0.98;;;;;;;10.03;79.65;99072.03;5105081;28;20043;-80
2023/01/02 05:42:38;;;;;;;4.43;1.17;;;;;;;9.99;80.15;99073.41;5105147;28;20396;-80
2023/01/02 05:45:05;;;;;;;3.00;1.60;;;;;;;10.13;79.89;99102.47;5092247;28;20055;-80
2023/01/02 05:47:33;;;;;;;5.97;1.45;;;;;;;9.94;80.24;99076.69;5099057;28;20055;-80
2023/01/02 05:49:59;;;;;;;3.13;1.38;;;;;;;10.01;80.04;99083.06;5105239;28;20047;-80
2023/01/02 05:52:26;;;;;;;1.95;1.23;;;;;;;9.88;80.11;99063.84;5110722;28;20517;-80
2023/01/02 05:54:52;;;;;;;3.50;1.20;;;;;;;10.06;79.78;99091.50;5111564;28;20051;-80
2023/01/02 05:57:19;;;;;;;2.58;1.27;;;;;;;10.00;79.99;99077.84;5111004;28;20483;-80
2023/01/02 05:59:47;;;;;;;6.65;1.30;;;;;;;9.94;80.04;99076.69;5110761;28;20043;-80
2023/01/02 06:02:13;;;;;;;3.08;1.20;;;;;;;9.99;79.95;99078.84;5098683;28;20055;-80
2023/01/02 06:04:40;;;;;;;4.38;1.20;;;;;;;10.15;79.28;99086.03;5105557;28;20499;-80
2023/01/02 06:07:06;;;;;;;4.55;1.50;;;;;;;10.15;78.71;99086.84;5111650;28;20047;-80
2023/01/02 06:09:33;;;;;;;3.13;1.30;;;;;;;10.28;77.87;99095.22;5100053;28;20087;-80
2023/01/02 06:11:59;;;;;;;2.67;1.30;;;;;;;10.40;78.24;99102.94;5096118;28;20055;-80
2023/01/02 06:14:26;;;;;;;3.78;1.65;;;;;;;10.37;77.55;99095.16;5113034;28;20059;-80
2023/01/02 06:16:57;;;;;;;3.35;1.10;;;;;;;10.34;76.43;99084.66;5113021;28;20197;-79
2023/01/02 06:19:23;;;;;;;3.40;1.60;;;;;;;10.34;76.60;99085.53;5107714;28;20062;-79
2023/01/02 06:21:50;;;;;;;2.63;1.48;;;;;;;10.42;76.58;99098.19;5106942;28;20095;-80
2023/01/02 06:24:16;;;;;;;2.85;1.65;;;;;;;10.56;76.16;99104.66;5109609;28;20055;-79
2023/01/02 06:26:43;;;;;;;1.83;1.35;;;;;;;10.39;76.98;99093.94;5105217;28;20054;-80
2023/01/02 06:29:10;;;;;;;7.72;3.38;;;;;;;10.43;77.58;99105.28;5109272;28;20325;-79
2023/01/02 06:31:36;;;;;;;7.00;1.83;;;;;;;10.47;77.52;99108.50;5107539;28;20051;-80
2023/01/02 06:34:04;;;;;;;5.43;1.38;;;;;;;10.21;77.40;99080.69;5105155;28;20043;-80
2023/01/02 06:36:32;;;;;;;4.13;1.40;;;;;;;10.38;76.26;99102.28;5110442;28;20074;-79
2023/01/02 06:38:59;;;;;;;3.63;1.40;;;;;;;10.26;75.96;99104.56;5105086;28;20415;-79
2023/01/02 06:41:26;;;;;;;1.90;1.20;;;;;;;10.25;75.68;99113.75;5113432;28;20394;-79
2023/01/02 06:43:53;;;;;;;2.67;1.33;;;;;;;10.27;75.74;99107.09;5110069;28;20505;-80
2023/01/02 06:46:21;;;;;;;3.22;1.27;;;;;;;10.25;75.93;99111.03;5105733;28;20514;-80
2023/01/02 06:48:48;;;;;;;3.83;1.42;;;;;;;10.27;75.11;99112.53;5102346;28;20051;-80
2023/01/02 06:51:18;;;;;;;4.85;1.58;;;;;;;10.27;75.01;99114.44;5100014;28;20049;-80
2023/01/02 06:53:45;;;;;;;5.13;1.42;;;;;;;10.31;74.32;99121.16;5108571;28;20079;-80
2023/01/02 06:56:15;;;;;;;4.60;1.55;;;;;;;10.17;75.38;99108.41;5111609;28;20062;-79
2023/01/02 06:58:42;;;;;;;3.78;1.67;;;;;;;10.14;76.24;99115.03;5111347;28;20047;-80
2023/01/02 07:01:10;;;;;;;4.15;1.27;;;;;;;10.19;75.76;99141.66;5103985;28;20392;-79
2023/01/02 07:03:37;;;;;;;3.17;1.20;;;;;;;10.07;76.03;99125.81;5106009;28;20070;-80
2023/01/02 07:06:06;;;;;;;10.27;1.98;;;;;;;10.03;76.33;99126.34;5102197;28;20050;-79
2023/01/02 07:08:34;;;;;;;3.85;1.30;;;;;;;9.95;76.81;99120.97;5106801;28;20058;-80
2023/01/02 07:11:08;;;;;;;3.70;1.50;;;;;;;10.00;77.89;99138.41;5109985;28;20036;-79
2023/01/02 07:13:35;;;;;;;3.97;1.30;;;;;;;9.80;80.58;99145.34;5108432;28;20418;-79
2023/01/02 07:16:04;;;;;;;3.90;1.50;;;;;;;9.54;82.76;99131.13;5093899;28;20055;-79
2023/01/02 07:18:31;;;;;;;5.80;1.73;;;;;;;9.43;84.27;99139.66;5101442;28;20105;-79
2023/01/02 07:20:58;;;;;;;7.40;2.22;;;;;;;9.43;84.75;99169.50;5104667;28;20504;-79
2023/01/02 07:23:24;;;;;;;4.30;2.17;;;;;;;9.23;85.65;99165.50;5104287;28;20411;-80
2023/01/02 07:25:54;;;;;;;6.20;2.90;;;;;;;9.20;86.56;99166.72;5095808;28;20051;-79
2023/01/02 07:28:21;;;;;;;3.28;2.55;;;;;;;9.03;87.05;99157.78;5107888;27;20121;-79
2023/01/02 07:30:48;;;;;;;5.93;2.55;;;;;;;9.15;87.76;99155.53;5111030;28;20046;-80
2023/01/02 07:33:14;;;;;;;7.88;1.95;;;;;;;8.94;88.49;99158.84;5103324;28;20048;-79
2023/01/02 07:35:44;;;;;;;5.13;2.35;;;;;;;8.93;88.79;99163.44;5101928;28;20498;-80
2023/01/02 07:38:11;;;;;;;6.68;2.05;;;;;;;8.84;89.92;99159.88;5107238;28;20062;-80
2023/01/02 07:40:37;;;;;;;2.88;1.58;;;;;;;8.80;91.22;99166.66;5112319;28;20043;-79
2023/01/02 07:43:05;;;;;;;3.47;1.20;;;;;;;8.74;91.70;99166.53;5112109;28;20048;-79
2023/01/02 07:45:33;;;;;;;2.60;1.60;;;;;;;8.82;93.03;99189.06;5109077;28;20134;-78
2023/01/02 07:47:59;;;;;;;5.40;1.80;;;;;;;8.60;94.18;99170.81;5101373;28;20604;-79
2023/01/02 07:50:29;;;;;;;3.15;1.60;;;;;;;8.67;95.35;99193.47;5112483;28;20054;-80
2023/01/02 07:52:58;;;;;;;2.97;1.42;;;;;;;8.52;93.59;99179.78;5096363;28;20055;-79
2023/01/02 07:55:25;;;;;;;5.15;1.65;;;;;;;8.72;92.33;99204.66;5097913;28;20052;-82
2023/01/02 07:57:52;;;;;;;3.53;1.42;;;;;;;8.67;93.37;99207.00;5102919;28;20047;-80
2023/01/02 08:00:20;;;;;;;3.70;2.13;;;;;;;8.54;93.01;99201.28;5102412;28;20044;-80
2023/01/02 08:02:48;;;;;;;5.65;1.45;;;;;;;8.61;92.36;99213.13;5104485;28;20508;-80
2023/01/02 08:05:15;;;;;;;6.78;1.50;;;;;;;8.44;92.14;99191.47;5110438;28;20096;-80
2023/01/02 08:07:42;;;;;;;3.53;1.77;;;;;;;8.49;92.08;99191.81;5104456;28;20417;-80
2023/01/02 08:10:08;;;;;;;5.20;1.52;;;;;;;8.67;91.82;99224.13;5105792;28;20039;-80
2023/01/02 08:12:35;;;;;;;3.47;1.42;;;;;;;8.60;92.60;99216.88;5106044;28;20055;-80
2023/01/02 08:15:01;;;;;;;2.53;1.30;;;;;;;8.62;93.74;99201.28;5103638;28;20059;-80
2023/01/02 08:17:30;;;;;;;3.20;1.67;;;;;;;8.59;93.93;99191.63;5099724;28;20042;-80
2023/01/02 08:19:57;;;;;;;4.05;1.77;;;;;;;8.52;93.99;99187.91;5113884;27;20439;-80
2023/01/02 08:22:23;;;;;;;2.60;1.30;;;;;;;8.75;94.75;99219.72;5109672;28;20054;-80
2023/01/02 08:24:50;;;;;;;5.70;1.65;;;;;;;8.56;92.74;99193.84;5109643;28;20044;-80
2023/01/02 08:27:17;;;;;;;4.00;1.70;;;;;;;8.64;93.97;99207.34;5104826;28;20043;-80
2023/01/02 08:29:43;;;;;;;3.22;1.45;;;;;;;8.76;90.89;99202.44;5108723;28;20141;-80
2023/01/02 08:32:10;;;;;;;9.52;1.60;;;;;;;8.72;91.71;99196.53;5109628;27;20135;-80
2023/01/02 08:34:38;;;;;;;5.40;1.50;;;;;;;8.93;93.13;99250.19;5117180;27;20043;-80
2023/01/02 08:37:04;;;;;;;3.85;1.80;;;;;;;8.73;94.18;99210.91;5104754;28;20043;-80
2023/01/02 08:39:31;;;;;;;6.25;1.75;;;;;;;8.89;95.74;99238.00;5110779;27;20047;-80
2023/01/02 08:41:58;;;;;;;2.97;1.30;;;;;;;8.90;95.98;99250.53;5103934;28;20062;-80
2023/01/02 08:44:24;;;;;;;5.13;2.03;;;;;;;8.81;94.91;99228.00;5113196;28;20048;-80
2023/01/02 08:46:51;;;;;;;4.72;1.50;;;;;;;8.84;96.85;99238.50;5103782;28;20048;-80
2023/01/02 08:49:17;;;;;;;4.28;1.48;;;;;;;8.86;100.00;99231.03;5116732;27;20159;-80
2023/01/02 08:51:45;;;;;;;4.88;1.70;;;;;;;8.92;98.01;99226.78;5113849;27;20471;-80
2023/01/02 08:54:12;;;;;;;1.80;1.13;;;;;;;9.17;93.11;99234.88;5097374;27;20056;-80
2023/01/02 08:56:39;;;;;;;4.32;1.83;;;;;;;9.14;92.52;99216.25;5129037;27;20059;-80
2023/01/02 08:59:09;;;;;;;4.75;1.67;;;;;;;9.29;93.62;99235.34;5100283;27;20396;-79
2023/01/02 09:01:36;;;;;;;6.50;1.60;;;;;;;9.16;97.84;99223.16;5101334;28;20048;-80
2023/01/02 09:04:03;;;;;;;6.82;1.77;;;;;;;9.32;100.00;99249.41;5095683;28;20043;-80
2023/01/02 09:06:32;;;;;;;4.75;2.05;;;;;;;9.37;100.00;99255.16;5116493;27;20276;-80
2023/01/02 09:09:00;;;;;;;6.03;2.35;;;;;;;9.26;100.00;99227.53;5111672;28;20048;-80
2023/01/02 09:11:28;;;;;;;5.35;1.85;;;;;;;9.28;100.00;99229.06;5129575;27;20047;-81
2023/01/02 09:13:56;;;;;;;5.30;1.92;;;;;;;9.34;99.57;99222.94;5133557;27;20058;-81
2023/01/02 09:16:23;;;;;;;3.30;1.52;;;;;;;9.42;100.00;99232.91;5133656;27;20486;-80
2023/01/02 09:18:50;;;;;;;4.70;2.08;;;;;;;9.50;98.81;99245.59;5134040;27;20043;-80
2023/01/02 09:21:17;;;;;;;5.35;2.30;;;;;;;9.64;98.43;99252.19;5123412;27;20054;-80
2023/01/02 09:23:43;;;;;;;3.85;2.55;;;;;;;9.71;97.88;99234.13;5112138;28;20117;-80
2023/01/02 09:26:12;;;;;;;4.22;2.30;;;;;;;9.78;97.48;99226.13;5112271;28;20048;-80
2023/01/02 09:28:39;;;;;;;6.45;2.20;;;;;;;9.88;96.20;99226.75;5131914;27;20043;-80
2023/01/02 09:31:06;;;;;;;2.90;1.77;;;;;;;10.18;95.08;99267.66;5133872;27;20051;-80
2023/01/02 09:33:33;;;;;;;3.85;1.88;;;;;;;10.11;95.47;99248.50;5132827;27;20051;-80
2023/01/02 09:36:01;;;;;;;4.15;1.80;;;;;;;10.33;96.24;99282.19;5133721;27;20047;-80
2023/01/02 09:38:27;;;;;;;5.80;1.95;;;;;;;10.30;97.07;99266.22;5128541;27;20581;-80
2023/01/02 09:40:55;;;;;;;7.55;2.60;;;;;;;10.44;96.65;99286.34;5112137;28;20063;-80
2023/01/02 09:43:29;;;;;;;6.20;2.33;;;;;;;10.34;97.20;99264.00;5109963;28;20055;-80
2023/01/02 09:45:58;;;;;;;6.80;2.28;;;;;;;10.35;94.48;99247.53;5122958;27;20380;-81
2023/01/02 09:48:30;;;;;;;5.82;2.20;;;;;;;10.45;93.60;99266.31;5133319;27;20043;-80
2023/01/02 09:50:57;;;;;;;7.68;2.10;;;;;;;10.56;93.86;99271.31;5133300;27;20069;-80
2023/01/02 09:53:23;;;;;;;10.85;2.70;;;;;;;10.76;94.61;99292.56;5132361;27;20051;-80
2023/01/02 09:55:56;;;;;;;4.15;1.67;;;;;;;10.77;93.76;99299.69;5118152;27;20478;-81
2023/01/02 09:58:35;;;;;;;7.20;2.10;;;;;;;10.65;96.65;99303.88;5107034;28;20047;-81
2023/01/02 10:01:03;;;;;;;6.03;1.90;;;;;;;10.61;92.33;99301.53;5105061;28;20052;-80
2023/01/02 10:03:36;;;;;;;5.75;2.05;;;;;;;10.64;88.16;99294.84;5091596;28;20052;-80
2023/01/02 10:06:12;;;;;;;5.80;2.10;;;;;;;10.79;90.87;99319.38;5092460;28;20052;-80
2023/01/02 10:08:50;;;;;;;4.55;2.13;;;;;;;10.81;91.46;99311.91;5090445;28;20483;-80
2023/01/02 10:11:40;;;;;;;4.65;2.10;;;;;;;10.87;91.60;99318.47;5108364;27;20043;-80
2023/01/02 10:14:12;;;;;;;;;;;;;;;10.93;91.44;99331.31;5124211;27;20055;-80
2023/01/02 10:16:42;;;;;;;6.10;2.47;;;;;;;10.83;91.08;99300.84;5112650;28;19934;-80
2023/01/02 10:19:19;;;;;;;3.83;2.22;;;;;;;10.88;90.70;99310.13;5112033;27;20040;-80
2023/01/02 10:21:49;;;;;;;7.28;2.78;;;;;;;11.05;91.38;99312.69;5112081;28;20058;-80
2023/01/02 10:24:20;;;;;;;6.03;2.17;;;;;;;11.13;91.91;99312.63;5111567;28;20112;-80
2023/01/02 10:26:52;;;;;;;7.47;2.42;;;;;;;11.25;89.86;99327.47;5111514;27;20811;-80
2023/01/02 10:29:27;;;;;;;6.70;2.60;;;;;;;11.34;82.49;99320.91;5117257;27;20350;-80
2023/01/02 10:31:58;;;;;;;3.00;1.90;;;;;;;11.38;81.63;99312.38;5117288;27;20047;-80
2023/01/02 10:34:24;;;;;;;7.95;2.33;;;;;;;11.41;79.12;99306.56;5108989;28;20052;-80
2023/01/02 10:36:51;;;;;;;6.18;2.28;;;;;;;11.68;80.03;99335.00;5119309;27;20058;-80
2023/01/02 10:39:20;;;;;;;7.20;2.08;;;;;;;11.69;77.39;99325.81;5132637;27;20395;-80
2023/01/02 10:41:51;;;;;;;4.10;1.77;;;;;;;11.74;74.10;99317.06;5132362;27;20510;-80
2023/01/02 10:44:26;;;;;;;3.15;2.03;;;;;;;11.86;74.55;99321.00;5131900;27;20047;-79
2023/01/02 10:46:53;;;;;;;3.42;2.08;;;;;;;11.80;73.79;99297.25;5122711;27;20046;-80
2023/01/02 10:49:21;;;;;;;6.93;1.83;;;;;;;11.90;72.04;99308.69;5112171;28;20040;-83
2023/01/02 10:51:53;;;;;;;3.38;1.75;;;;;;;11.92;71.78;99317.50;5113620;28;20059;-83
2023/01/02 10:54:19;;;;;;;8.07;1.77;;;;;;;11.99;70.87;99314.94;5111384;28;20538;-84
2023/01/02 10:56:49;;;;;;;8.90;1.73;;;;;;;11.98;68.70;99325.00;5111748;28;20511;-83
2023/01/02 10:59:19;;;;;;;;;;;;;;;12.09;71.27;99320.06;5112159;28;20407;-83
2023/01/02 11:01:51;;;;;;;7.32;1.92;;;;;;;12.11;71.33;99318.00;5112006;27;19926;-83
2023/01/02 11:04:23;;;;;;;6.90;1.63;;;;;;;12.12;70.79;99320.53;5110613;28;20123;-84
2023/01/02 11:06:53;;;;;;;10.32;3.05;;;;;;;12.31;70.00;99329.97;5111942;28;20104;-84
2023/01/02 11:09:22;;;;;;;4.63;1.80;;;;;;;12.34;68.72;99315.13;5111160;27;20044;-83
2023/01/02 11:11:51;;;;;;;7.20;2.40;;;;;;;12.37;69.17;99322.91;5132074;27;20134;-84
2023/01/02 11:14:21;;;;;;;6.20;2.70;;;;;;;12.43;70.22;99319.41;5131156;27;20085;-83
2023/01/02 11:16:51;;;;;;;12.65;3.55;;;;;;;12.47;69.02;99309.81;5131969;27;20050;-84
2023/01/02 11:19:20;;;;;;;5.72;2.03;;;;;;;12.34;70.40;99298.75;5124583;27;20043;-84
2023/01/02 11:21:47;;;;;;;6.97;2.33;;;;;;;12.44;69.43;99323.00;5113239;27;20544;-84
2023/01/02 11:24:18;;;;;;;9.57;2.60;;;;;;;12.33;68.94;99302.53;5111524;27;20043;-84
2023/01/02 11:26:47;;;;;;;10.23;2.38;;;;;;;12.39;68.02;99315.41;5103614;27;20101;-83
2023/01/02 11:29:17;;;;;;;6.32;2.33;;;;;;;12.46;69.81;99331.81;5090793;28;20051;-83
2023/01/02 11:31:45;;;;;;;7.05;2.05;;;;;;;12.38;70.07;99310.97;5091179;28;20056;-84
2023/01/02 11:34:20;;;;;;;6.63;2.08;;;;;;;12.36;68.59;99300.28;5089914;28;20138;-84
2023/01/02 11:37:01;;;;;;;6.65;2.00;;;;;;;12.52;69.86;99304.59;5111993;27;20502;-84
2023/01/02 11:39:30;;;;;;;14.68;4.03;;;;;;;12.48;69.35;99308.78;5110870;28;20089;-84
2023/01/02 11:44:55;;;;;;;6.55;2.42;;;;;;;12.71;68.34;99324.13;5090755;28;20183;-83
2023/01/02 11:47:32;;;;;;;8.60;2.58;;;;;;;12.61;67.30;99312.69;5091045;28;20054;-84
2023/01/02 11:50:00;;;;;;;4.38;1.92;;;;;;;12.73;68.35;99313.84;5091350;28;20048;-81
2023/01/02 11:52:34;;;;;;;5.78;2.30;;;;;;;12.69;68.90;99307.94;5089732;28;20058;-80